< < Back
Terminal Aerodrome Forecast


Current Version              Previous Versions:   1  2  3  4  5  6  7  8  9  

Terminal Aerodrome Forecast

968
FTUS42 KCHS 270522
TAFSAV
TAF
KSAV 270522Z 2706/2806 23004KT P6SM FEW250
     FM271600 26008KT P6SM SCT050
     FM272100 20007KT P6SM SCT050=

Latest METAR

993
SAUS80 KWBC 272300
MTRSAV
METAR KSAV 272253Z 22006KT 10SM FEW060 35/20 A2997 RMK AO2 SLP148
T03500200


USA.gov is the U.S. government's official web portal to all federal, state and local government web resources and services.